sensor_id;sensor_type;location;lat;lon;timestamp;pressure;altitude;pressure_sealevel;temperature;humidity
18652;BME280;9455;54.302;10.124;2022-10-20T00:01:49;102554.38;;;6.17;93.57
18652;BME280;9455;54.302;10.124;2022-10-20T00:04:16;102552.38;;;6.22;93.65
18652;BME280;9455;54.302;10.124;2022-10-20T00:06:42;102550.59;;;6.23;93.94
18652;BME280;9455;54.302;10.124;2022-10-20T00:09:10;102551.50;;;6.22;93.61
18652;BME280;9455;54.302;10.124;2022-10-20T00:11:37;102548.91;;;6.20;94.08
18652;BME280;9455;54.302;10.124;2022-10-20T00:14:04;102548.50;;;6.31;94.11
18652;BME280;9455;54.302;10.124;2022-10-20T00:16:34;102547.91;;;6.24;93.90
18652;BME280;9455;54.302;10.124;2022-10-20T00:19:01;102554.97;;;6.24;93.54
18652;BME280;9455;54.302;10.124;2022-10-20T00:21:28;102555.69;;;6.27;93.67
18652;BME280;9455;54.302;10.124;2022-10-20T00:23:57;102545.97;;;6.28;93.96
18652;BME280;9455;54.302;10.124;2022-10-20T00:26:27;102557.56;;;6.25;93.71
18652;BME280;9455;54.302;10.124;2022-10-20T00:28:54;102551.44;;;6.23;93.99
18652;BME280;9455;54.302;10.124;2022-10-20T00:31:22;102548.19;;;6.38;93.56
18652;BME280;9455;54.302;10.124;2022-10-20T00:33:49;102550.16;;;6.33;93.24
18652;BME280;9455;54.302;10.124;2022-10-20T00:36:17;102552.72;;;6.35;93.21
18652;BME280;9455;54.302;10.124;2022-10-20T00:38:44;102564.44;;;6.29;92.81
18652;BME280;9455;54.302;10.124;2022-10-20T00:41:11;102561.97;;;6.25;92.98
18652;BME280;9455;54.302;10.124;2022-10-20T00:43:46;102559.38;;;6.23;93.03
18652;BME280;9455;54.302;10.124;2022-10-20T00:46:14;102552.91;;;6.30;93.50
18652;BME280;9455;54.302;10.124;2022-10-20T00:48:44;102551.44;;;6.23;93.24
18652;BME280;9455;54.302;10.124;2022-10-20T00:51:14;102548.06;;;6.20;92.90
18652;BME280;9455;54.302;10.124;2022-10-20T00:53:42;102538.94;;;6.05;92.58
18652;BME280;9455;54.302;10.124;2022-10-20T00:56:10;102542.91;;;6.17;92.67
18652;BME280;9455;54.302;10.124;2022-10-20T00:58:36;102539.56;;;6.12;93.11
18652;BME280;9455;54.302;10.124;2022-10-20T01:01:05;102541.34;;;6.11;92.75
18652;BME280;9455;54.302;10.124;2022-10-20T01:03:35;102541.28;;;6.13;92.27
18652;BME280;9455;54.302;10.124;2022-10-20T01:06:03;102541.19;;;6.16;92.61
18652;BME280;9455;54.302;10.124;2022-10-20T01:08:30;102537.72;;;6.14;92.25
18652;BME280;9455;54.302;10.124;2022-10-20T01:11:04;102525.00;;;6.22;92.35
18652;BME280;9455;54.302;10.124;2022-10-20T01:13:38;102529.72;;;6.15;92.40
18652;BME280;9455;54.302;10.124;2022-10-20T01:16:12;102521.56;;;5.98;93.05
18652;BME280;9455;54.302;10.124;2022-10-20T01:18:48;102515.97;;;6.06;92.83
18652;BME280;9455;54.302;10.124;2022-10-20T01:24:35;102515.09;;;6.05;93.73
18652;BME280;9455;54.302;10.124;2022-10-20T01:27:28;102508.59;;;6.14;93.80
18652;BME280;9455;54.302;10.124;2022-10-20T01:30:03;102501.69;;;6.10;94.17
18652;BME280;9455;54.302;10.124;2022-10-20T01:32:37;102495.47;;;6.11;94.57
18652;BME280;9455;54.302;10.124;2022-10-20T01:35:11;102494.09;;;6.22;94.65
18652;BME280;9455;54.302;10.124;2022-10-20T01:37:43;102493.78;;;6.30;95.22
18652;BME280;9455;54.302;10.124;2022-10-20T01:40:15;102496.31;;;6.33;94.82
18652;BME280;9455;54.302;10.124;2022-10-20T01:42:46;102486.97;;;6.24;94.58
18652;BME280;9455;54.302;10.124;2022-10-20T01:45:16;102477.31;;;6.22;94.18
18652;BME280;9455;54.302;10.124;2022-10-20T01:47:45;102459.59;;;6.24;94.58
18652;BME280;9455;54.302;10.124;2022-10-20T01:50:13;102460.47;;;6.24;94.57
18652;BME280;9455;54.302;10.124;2022-10-20T01:52:41;102457.53;;;6.30;94.83
18652;BME280;9455;54.302;10.124;2022-10-20T01:55:12;102450.84;;;6.22;95.27
18652;BME280;9455;54.302;10.124;2022-10-20T01:57:54;102452.19;;;6.32;95.36
18652;BME280;9455;54.302;10.124;2022-10-20T02:00:24;102450.34;;;6.34;95.63
18652;BME280;9455;54.302;10.124;2022-10-20T02:03:03;102450.09;;;6.40;95.38
18652;BME280;9455;54.302;10.124;2022-10-20T02:05:45;102448.00;;;6.26;95.05
18652;BME280;9455;54.302;10.124;2022-10-20T02:08:19;102447.81;;;6.31;95.21
18652;BME280;9455;54.302;10.124;2022-10-20T02:10:50;102437.16;;;6.32;94.96
18652;BME280;9455;54.302;10.124;2022-10-20T02:13:20;102430.22;;;6.30;94.91
18652;BME280;9455;54.302;10.124;2022-10-20T02:15:50;102432.97;;;6.27;94.54
18652;BME280;9455;54.302;10.124;2022-10-20T02:18:23;102442.59;;;6.29;94.92
18652;BME280;9455;54.302;10.124;2022-10-20T02:20:53;102432.44;;;6.19;95.02
18652;BME280;9455;54.302;10.124;2022-10-20T02:23:20;102433.84;;;6.07;94.67
18652;BME280;9455;54.302;10.124;2022-10-20T02:25:48;102421.19;;;6.14;94.63
18652;BME280;9455;54.302;10.124;2022-10-20T02:28:18;102423.41;;;6.03;94.48
18652;BME280;9455;54.302;10.124;2022-10-20T02:30:45;102421.50;;;6.06;94.50
18652;BME280;9455;54.302;10.124;2022-10-20T02:33:13;102420.25;;;6.15;94.93
18652;BME280;9455;54.302;10.124;2022-10-20T02:35:47;102425.66;;;6.12;95.18
18652;BME280;9455;54.302;10.124;2022-10-20T02:38:15;102423.28;;;6.06;94.59
18652;BME280;9455;54.302;10.124;2022-10-20T02:40:42;102417.25;;;6.02;94.73
18652;BME280;9455;54.302;10.124;2022-10-20T02:43:09;102408.00;;;6.12;94.77
18652;BME280;9455;54.302;10.124;2022-10-20T02:45:36;102401.81;;;6.12;95.21
18652;BME280;9455;54.302;10.124;2022-10-20T02:48:04;102403.69;;;6.10;95.09
18652;BME280;9455;54.302;10.124;2022-10-20T02:50:32;102401.50;;;6.19;95.81
18652;BME280;9455;54.302;10.124;2022-10-20T02:52:58;102409.47;;;6.19;95.29
18652;BME280;9455;54.302;10.124;2022-10-20T02:55:25;102403.22;;;6.20;95.11
18652;BME280;9455;54.302;10.124;2022-10-20T02:57:51;102403.44;;;6.16;95.00
18652;BME280;9455;54.302;10.124;2022-10-20T03:00:19;102394.81;;;6.11;94.70
18652;BME280;9455;54.302;10.124;2022-10-20T03:02:47;102388.06;;;6.04;94.52
18652;BME280;9455;54.302;10.124;2022-10-20T03:05:13;102391.25;;;5.92;94.21
18652;BME280;9455;54.302;10.124;2022-10-20T03:07:40;102388.84;;;5.86;94.42
18652;BME280;9455;54.302;10.124;2022-10-20T03:10:07;102383.41;;;5.89;94.24
18652;BME280;9455;54.302;10.124;2022-10-20T03:12:34;102383.75;;;5.79;94.13
18652;BME280;9455;54.302;10.124;2022-10-20T03:15:00;102382.88;;;5.59;94.51
18652;BME280;9455;54.302;10.124;2022-10-20T03:17:27;102378.97;;;5.67;94.61
18652;BME280;9455;54.302;10.124;2022-10-20T03:19:55;102379.81;;;5.68;93.89
18652;BME280;9455;54.302;10.124;2022-10-20T03:22:21;102376.47;;;5.64;94.03
18652;BME280;9455;54.302;10.124;2022-10-20T03:24:48;102381.06;;;5.59;93.94
18652;BME280;9455;54.302;10.124;2022-10-20T03:27:14;102368.63;;;5.40;94.06
18652;BME280;9455;54.302;10.124;2022-10-20T03:29:41;102369.50;;;5.62;94.00
18652;BME280;9455;54.302;10.124;2022-10-20T03:32:07;102370.63;;;5.56;93.43
18652;BME280;9455;54.302;10.124;2022-10-20T03:34:33;102361.41;;;5.45;93.42
18652;BME280;9455;54.302;10.124;2022-10-20T03:37:01;102366.41;;;5.51;93.14
18652;BME280;9455;54.302;10.124;2022-10-20T03:39:28;102363.88;;;5.49;92.89
18652;BME280;9455;54.302;10.124;2022-10-20T03:41:54;102352.97;;;5.35;92.83
18652;BME280;9455;54.302;10.124;2022-10-20T03:44:21;102362.13;;;5.48;93.31
18652;BME280;9455;54.302;10.124;2022-10-20T03:46:48;102364.47;;;5.34;92.97
18652;BME280;9455;54.302;10.124;2022-10-20T03:49:14;102360.84;;;5.15;93.18
18652;BME280;9455;54.302;10.124;2022-10-20T03:51:41;102349.56;;;5.32;93.83
18652;BME280;9455;54.302;10.124;2022-10-20T03:54:08;102355.16;;;5.24;93.43
18652;BME280;9455;54.302;10.124;2022-10-20T03:56:35;102357.31;;;5.15;92.97
18652;BME280;9455;54.302;10.124;2022-10-20T03:59:01;102352.78;;;5.18;92.91
18652;BME280;9455;54.302;10.124;2022-10-20T04:01:30;102352.19;;;5.10;92.86
18652;BME280;9455;54.302;10.124;2022-10-20T04:03:57;102354.34;;;5.01;92.59
18652;BME280;9455;54.302;10.124;2022-10-20T04:06:23;102340.84;;;5.08;92.57
18652;BME280;9455;54.302;10.124;2022-10-20T04:08:50;102333.16;;;5.02;92.35
18652;BME280;9455;54.302;10.124;2022-10-20T04:11:18;102334.75;;;5.06;92.64
18652;BME280;9455;54.302;10.124;2022-10-20T04:13:44;102346.03;;;5.11;92.64
18652;BME280;9455;54.302;10.124;2022-10-20T04:16:11;102348.34;;;4.97;92.57
18652;BME280;9455;54.302;10.124;2022-10-20T04:18:37;102338.56;;;4.99;92.35
18652;BME280;9455;54.302;10.124;2022-10-20T04:21:04;102342.34;;;4.92;92.60
18652;BME280;9455;54.302;10.124;2022-10-20T04:23:30;102335.91;;;4.99;92.76
18652;BME280;9455;54.302;10.124;2022-10-20T04:25:57;102328.91;;;4.98;91.85
18652;BME280;9455;54.302;10.124;2022-10-20T04:28:24;102327.41;;;4.91;92.39
18652;BME280;9455;54.302;10.124;2022-10-20T04:30:51;102325.66;;;4.90;92.23
18652;BME280;9455;54.302;10.124;2022-10-20T04:33:18;102325.88;;;4.86;92.50
18652;BME280;9455;54.302;10.124;2022-10-20T04:35:45;102328.41;;;4.89;92.75
18652;BME280;9455;54.302;10.124;2022-10-20T04:38:11;102326.44;;;4.94;92.54
18652;BME280;9455;54.302;10.124;2022-10-20T04:40:38;102318.78;;;4.86;92.40
18652;BME280;9455;54.302;10.124;2022-10-20T04:43:04;102315.25;;;4.87;92.35
18652;BME280;9455;54.302;10.124;2022-10-20T04:45:32;102312.66;;;4.86;92.51
18652;BME280;9455;54.302;10.124;2022-10-20T04:47:58;102318.91;;;4.83;92.75
18652;BME280;9455;54.302;10.124;2022-10-20T04:50:26;102313.81;;;4.79;92.54
18652;BME280;9455;54.302;10.124;2022-10-20T04:52:52;102312.66;;;4.86;92.71
18652;BME280;9455;54.302;10.124;2022-10-20T04:55:19;102314.31;;;4.88;92.49
18652;BME280;9455;54.302;10.124;2022-10-20T04:57:45;102314.09;;;4.71;92.47
18652;BME280;9455;54.302;10.124;2022-10-20T05:00:13;102309.38;;;4.79;92.86
18652;BME280;9455;54.302;10.124;2022-10-20T05:02:41;102300.66;;;4.99;92.52
18652;BME280;9455;54.302;10.124;2022-10-20T05:05:08;102306.38;;;4.88;92.80
18652;BME280;9455;54.302;10.124;2022-10-20T05:07:34;102305.56;;;4.86;92.89
18652;BME280;9455;54.302;10.124;2022-10-20T05:10:01;102293.94;;;4.90;92.97
18652;BME280;9455;54.302;10.124;2022-10-20T05:12:27;102286.34;;;4.83;93.31
18652;BME280;9455;54.302;10.124;2022-10-20T05:14:54;102300.50;;;4.82;92.71
18652;BME280;9455;54.302;10.124;2022-10-20T05:17:20;102290.66;;;4.85;92.70
18652;BME280;9455;54.302;10.124;2022-10-20T05:19:48;102289.72;;;4.86;92.31
18652;BME280;9455;54.302;10.124;2022-10-20T05:22:14;102282.72;;;4.85;91.98
18652;BME280;9455;54.302;10.124;2022-10-20T05:24:41;102278.03;;;4.70;92.18
18652;BME280;9455;54.302;10.124;2022-10-20T05:27:07;102271.72;;;4.74;92.21
18652;BME280;9455;54.302;10.124;2022-10-20T05:29:34;102269.41;;;4.65;92.19
18652;BME280;9455;54.302;10.124;2022-10-20T05:32:00;102267.91;;;4.81;92.16
18652;BME280;9455;54.302;10.124;2022-10-20T05:34:27;102270.41;;;4.63;92.23
18652;BME280;9455;54.302;10.124;2022-10-20T05:36:54;102268.09;;;4.54;91.91
18652;BME280;9455;54.302;10.124;2022-10-20T05:39:21;102267.03;;;4.59;91.82
18652;BME280;9455;54.302;10.124;2022-10-20T05:41:47;102264.78;;;4.49;91.85
18652;BME280;9455;54.302;10.124;2022-10-20T05:44:14;102258.06;;;4.63;91.79
18652;BME280;9455;54.302;10.124;2022-10-20T05:46:40;102262.66;;;4.58;92.08
18652;BME280;9455;54.302;10.124;2022-10-20T05:49:10;102263.63;;;4.56;92.03
18652;BME280;9455;54.302;10.124;2022-10-20T05:51:38;102262.31;;;4.44;91.93
18652;BME280;9455;54.302;10.124;2022-10-20T05:54:06;102257.38;;;4.58;92.09
18652;BME280;9455;54.302;10.124;2022-10-20T05:56:32;102251.63;;;4.47;91.88
18652;BME280;9455;54.302;10.124;2022-10-20T05:58:59;102247.72;;;4.57;91.55
18652;BME280;9455;54.302;10.124;2022-10-20T06:01:27;102241.56;;;4.57;92.50
18652;BME280;9455;54.302;10.124;2022-10-20T06:04:04;102232.09;;;4.51;92.90
18652;BME280;9455;54.302;10.124;2022-10-20T06:06:31;102225.00;;;4.53;92.58
18652;BME280;9455;54.302;10.124;2022-10-20T06:08:58;102224.38;;;4.68;92.40
18652;BME280;9455;54.302;10.124;2022-10-20T06:11:27;102225.00;;;4.53;92.67
18652;BME280;9455;54.302;10.124;2022-10-20T06:13:55;102228.22;;;4.83;93.64
18652;BME280;9455;54.302;10.124;2022-10-20T06:16:22;102230.69;;;4.87;93.50
18652;BME280;9455;54.302;10.124;2022-10-20T06:18:49;102235.34;;;5.02;94.65
18652;BME280;9455;54.302;10.124;2022-10-20T06:21:18;102226.22;;;5.09;94.13
18652;BME280;9455;54.302;10.124;2022-10-20T06:23:44;102219.22;;;5.08;94.28
18652;BME280;9455;54.302;10.124;2022-10-20T06:26:13;102221.22;;;5.23;94.34
18652;BME280;9455;54.302;10.124;2022-10-20T06:28:43;102221.81;;;5.30;94.70
18652;BME280;9455;54.302;10.124;2022-10-20T06:31:11;102218.34;;;5.29;94.84
18652;BME280;9455;54.302;10.124;2022-10-20T06:33:38;102210.31;;;5.51;95.71
18652;BME280;9455;54.302;10.124;2022-10-20T06:36:05;102203.94;;;5.56;95.21
18652;BME280;9455;54.302;10.124;2022-10-20T06:38:32;102213.16;;;5.66;95.49
18652;BME280;9455;54.302;10.124;2022-10-20T06:41:00;102201.47;;;5.72;95.35
18652;BME280;9455;54.302;10.124;2022-10-20T06:43:26;102203.59;;;5.84;95.14
18652;BME280;9455;54.302;10.124;2022-10-20T06:45:55;102198.84;;;5.72;95.31
18652;BME280;9455;54.302;10.124;2022-10-20T06:48:22;102201.13;;;5.79;95.22
18652;BME280;9455;54.302;10.124;2022-10-20T06:50:49;102195.47;;;5.89;95.60
18652;BME280;9455;54.302;10.124;2022-10-20T06:53:16;102192.53;;;5.95;94.95
18652;BME280;9455;54.302;10.124;2022-10-20T06:55:42;102199.81;;;5.90;95.06
18652;BME280;9455;54.302;10.124;2022-10-20T06:58:09;102203.78;;;6.00;95.32
18652;BME280;9455;54.302;10.124;2022-10-20T07:00:35;102199.78;;;6.10;95.43
18652;BME280;9455;54.302;10.124;2022-10-20T07:03:03;102209.56;;;6.08;95.26
18652;BME280;9455;54.302;10.124;2022-10-20T07:05:29;102201.75;;;6.05;94.98
18652;BME280;9455;54.302;10.124;2022-10-20T07:07:56;102207.72;;;6.10;95.44
18652;BME280;9455;54.302;10.124;2022-10-20T07:10:22;102205.50;;;6.19;95.50
18652;BME280;9455;54.302;10.124;2022-10-20T07:12:49;102217.47;;;6.28;95.41
18652;BME280;9455;54.302;10.124;2022-10-20T07:15:15;102225.22;;;6.32;95.23
18652;BME280;9455;54.302;10.124;2022-10-20T07:17:42;102202.88;;;6.38;95.27
18652;BME280;9455;54.302;10.124;2022-10-20T07:20:10;102209.31;;;6.51;95.64
18652;BME280;9455;54.302;10.124;2022-10-20T07:22:36;102214.63;;;6.51;95.80
18652;BME280;9455;54.302;10.124;2022-10-20T07:25:03;102209.00;;;6.57;96.21
18652;BME280;9455;54.302;10.124;2022-10-20T07:27:31;102211.44;;;6.61;96.27
18652;BME280;9455;54.302;10.124;2022-10-20T07:29:57;102215.88;;;6.79;95.91
18652;BME280;9455;54.302;10.124;2022-10-20T07:32:24;102218.00;;;6.90;96.13
18652;BME280;9455;54.302;10.124;2022-10-20T07:34:50;102223.25;;;6.91;96.13
18652;BME280;9455;54.302;10.124;2022-10-20T07:37:18;102221.88;;;7.01;96.03
18652;BME280;9455;54.302;10.124;2022-10-20T07:39:44;102216.25;;;7.07;96.02
18652;BME280;9455;54.302;10.124;2022-10-20T07:42:11;102210.25;;;7.21;95.67
18652;BME280;9455;54.302;10.124;2022-10-20T07:44:37;102209.66;;;7.16;95.85
18652;BME280;9455;54.302;10.124;2022-10-20T07:47:04;102204.31;;;7.33;95.87
18652;BME280;9455;54.302;10.124;2022-10-20T07:49:30;102203.94;;;7.40;95.68
18652;BME280;9455;54.302;10.124;2022-10-20T07:51:56;102198.50;;;7.43;95.63
18652;BME280;9455;54.302;10.124;2022-10-20T07:54:24;102198.88;;;7.53;95.77
18652;BME280;9455;54.302;10.124;2022-10-20T07:56:51;102184.75;;;7.52;95.82
18652;BME280;9455;54.302;10.124;2022-10-20T07:59:17;102181.44;;;7.64;95.85
18652;BME280;9455;54.302;10.124;2022-10-20T08:01:44;102178.72;;;7.66;96.43
18652;BME280;9455;54.302;10.124;2022-10-20T08:04:11;102164.97;;;7.75;95.96
18652;BME280;9455;54.302;10.124;2022-10-20T08:06:38;102162.66;;;7.84;96.32
18652;BME280;9455;54.302;10.124;2022-10-20T08:09:04;102156.00;;;7.93;96.11
18652;BME280;9455;54.302;10.124;2022-10-20T08:11:32;102145.47;;;7.91;95.82
18652;BME280;9455;54.302;10.124;2022-10-20T08:13:59;102136.16;;;8.00;95.81
18652;BME280;9455;54.302;10.124;2022-10-20T08:16:25;102129.91;;;8.16;96.06
18652;BME280;9455;54.302;10.124;2022-10-20T08:18:52;102139.38;;;8.22;95.14
18652;BME280;9455;54.302;10.124;2022-10-20T08:21:19;102123.84;;;8.30;94.64
18652;BME280;9455;54.302;10.124;2022-10-20T08:23:48;102119.06;;;8.36;94.48
18652;BME280;9455;54.302;10.124;2022-10-20T08:26:16;102117.06;;;8.40;94.03
18652;BME280;9455;54.302;10.124;2022-10-20T08:28:45;102118.44;;;8.47;93.49
18652;BME280;9455;54.302;10.124;2022-10-20T08:31:11;102106.16;;;8.60;93.54
18652;BME280;9455;54.302;10.124;2022-10-20T08:33:38;102102.03;;;8.70;93.01
18652;BME280;9455;54.302;10.124;2022-10-20T08:36:06;102097.91;;;8.80;93.00
18652;BME280;9455;54.302;10.124;2022-10-20T08:38:34;102103.31;;;8.79;93.37
18652;BME280;9455;54.302;10.124;2022-10-20T08:41:01;102096.97;;;8.95;91.99
18652;BME280;9455;54.302;10.124;2022-10-20T08:43:29;102092.09;;;9.03;91.14
18652;BME280;9455;54.302;10.124;2022-10-20T08:45:58;102095.41;;;9.07;91.10
18652;BME280;9455;54.302;10.124;2022-10-20T08:48:27;102098.16;;;9.05;90.97
18652;BME280;9455;54.302;10.124;2022-10-20T08:50:54;102083.72;;;9.09;90.68
18652;BME280;9455;54.302;10.124;2022-10-20T08:53:24;102080.25;;;9.23;90.23
18652;BME280;9455;54.302;10.124;2022-10-20T08:55:53;102086.22;;;9.26;89.76
18652;BME280;9455;54.302;10.124;2022-10-20T08:58:22;102072.56;;;9.32;89.52
18652;BME280;9455;54.302;10.124;2022-10-20T09:00:54;102064.75;;;9.43;88.85
18652;BME280;9455;54.302;10.124;2022-10-20T09:03:26;102050.22;;;9.49;88.33
18652;BME280;9455;54.302;10.124;2022-10-20T09:05:54;102044.50;;;9.55;87.96
18652;BME280;9455;54.302;10.124;2022-10-20T09:08:25;102049.19;;;9.65;88.36
18652;BME280;9455;54.302;10.124;2022-10-20T09:10:53;102044.78;;;9.64;88.00
18652;BME280;9455;54.302;10.124;2022-10-20T09:13:23;102044.03;;;9.76;87.59
18652;BME280;9455;54.302;10.124;2022-10-20T09:15:53;102040.22;;;9.80;86.45
18652;BME280;9455;54.302;10.124;2022-10-20T09:18:22;102028.59;;;9.81;85.65
18652;BME280;9455;54.302;10.124;2022-10-20T09:20:52;102042.28;;;9.89;84.84
18652;BME280;9455;54.302;10.124;2022-10-20T09:23:23;102041.16;;;9.93;84.29
18652;BME280;9455;54.302;10.124;2022-10-20T09:25:51;102051.81;;;9.93;84.35
18652;BME280;9455;54.302;10.124;2022-10-20T09:28:21;102029.88;;;10.02;84.55
18652;BME280;9455;54.302;10.124;2022-10-20T09:30:48;102027.41;;;10.13;83.44
18652;BME280;9455;54.302;10.124;2022-10-20T09:33:29;102020.53;;;10.23;82.56
18652;BME280;9455;54.302;10.124;2022-10-20T09:36:03;102021.47;;;10.22;82.89
18652;BME280;9455;54.302;10.124;2022-10-20T09:38:32;102026.22;;;10.31;82.03
18652;BME280;9455;54.302;10.124;2022-10-20T09:41:09;102020.56;;;10.36;81.58
18652;BME280;9455;54.302;10.124;2022-10-20T09:43:39;102022.19;;;10.38;81.08
18652;BME280;9455;54.302;10.124;2022-10-20T09:46:08;102011.47;;;10.52;81.67
18652;BME280;9455;54.302;10.124;2022-10-20T09:48:40;101997.94;;;10.55;79.35
18652;BME280;9455;54.302;10.124;2022-10-20T09:51:13;101994.50;;;10.53;80.42
18652;BME280;9455;54.302;10.124;2022-10-20T09:53:49;101995.25;;;10.55;80.06
18652;BME280;9455;54.302;10.124;2022-10-20T09:56:26;101986.63;;;10.64;78.93
18652;BME280;9455;54.302;10.124;2022-10-20T09:58:54;101979.78;;;10.60;78.13
18652;BME280;9455;54.302;10.124;2022-10-20T10:01:21;101994.75;;;10.75;78.62
18652;BME280;9455;54.302;10.124;2022-10-20T10:03:50;101979.69;;;10.74;78.08
18652;BME280;9455;54.302;10.124;2022-10-20T10:06:26;101973.50;;;10.74;78.93
18652;BME280;9455;54.302;10.124;2022-10-20T10:08:54;101975.13;;;10.89;78.56
18652;BME280;9455;54.302;10.124;2022-10-20T10:11:23;101973.84;;;10.94;78.01
18652;BME280;9455;54.302;10.124;2022-10-20T10:13:52;101984.31;;;10.97;78.66
18652;BME280;9455;54.302;10.124;2022-10-20T10:16:20;101985.41;;;11.07;77.86
18652;BME280;9455;54.302;10.124;2022-10-20T10:18:56;101977.69;;;11.15;77.10
18652;BME280;9455;54.302;10.124;2022-10-20T10:21:24;101968.09;;;11.13;75.82
18652;BME280;9455;54.302;10.124;2022-10-20T10:23:53;101967.84;;;11.03;75.67
18652;BME280;9455;54.302;10.124;2022-10-20T10:26:41;101974.47;;;11.10;76.22
18652;BME280;9455;54.302;10.124;2022-10-20T10:29:16;101968.31;;;10.97;76.59
18652;BME280;9455;54.302;10.124;2022-10-20T10:31:48;101961.13;;;11.10;76.11
18652;BME280;9455;54.302;10.124;2022-10-20T10:34:31;101962.97;;;11.23;75.45
18652;BME280;9455;54.302;10.124;2022-10-20T10:37:00;101958.25;;;11.39;75.70
18652;BME280;9455;54.302;10.124;2022-10-20T10:39:28;101957.50;;;11.37;76.00
18652;BME280;9455;54.302;10.124;2022-10-20T10:42:07;101942.53;;;11.47;76.22
18652;BME280;9455;54.302;10.124;2022-10-20T10:44:51;101936.19;;;11.48;75.07
18652;BME280;9455;54.302;10.124;2022-10-20T10:47:30;101916.72;;;11.71;76.37
18652;BME280;9455;54.302;10.124;2022-10-20T10:50:26;101911.81;;;11.65;73.71
18652;BME280;9455;54.302;10.124;2022-10-20T10:53:06;101914.19;;;11.57;73.56
18652;BME280;9455;54.302;10.124;2022-10-20T10:55:41;101898.88;;;11.59;72.73
18652;BME280;9455;54.302;10.124;2022-10-20T10:58:15;101901.31;;;11.74;73.14
18652;BME280;9455;54.302;10.124;2022-10-20T11:00:53;101895.34;;;11.71;73.02
18652;BME280;9455;54.302;10.124;2022-10-20T11:03:41;101887.00;;;11.75;73.31
18652;BME280;9455;54.302;10.124;2022-10-20T11:06:15;101884.38;;;11.86;73.52
18652;BME280;9455;54.302;10.124;2022-10-20T11:08:54;101883.75;;;11.83;72.73
18652;BME280;9455;54.302;10.124;2022-10-20T11:11:36;101882.03;;;11.82;72.01
18652;BME280;9455;54.302;10.124;2022-10-20T11:14:14;101873.28;;;11.80;73.49
18652;BME280;9455;54.302;10.124;2022-10-20T11:16:52;101865.44;;;11.66;73.69
18652;BME280;9455;54.302;10.124;2022-10-20T11:19:53;101846.06;;;11.75;72.92
18652;BME280;9455;54.302;10.124;2022-10-20T11:22:33;101834.16;;;11.79;72.40
18652;BME280;9455;54.302;10.124;2022-10-20T11:25:10;101837.50;;;11.70;72.16
18652;BME280;9455;54.302;10.124;2022-10-20T11:27:38;101839.00;;;11.74;72.74
18652;BME280;9455;54.302;10.124;2022-10-20T11:30:12;101835.28;;;11.87;73.38
18652;BME280;9455;54.302;10.124;2022-10-20T11:32:45;101821.06;;;11.87;72.00
18652;BME280;9455;54.302;10.124;2022-10-20T11:35:20;101823.16;;;11.94;72.70
18652;BME280;9455;54.302;10.124;2022-10-20T11:37:55;101816.28;;;12.03;72.32
18652;BME280;9455;54.302;10.124;2022-10-20T11:40:23;101818.69;;;11.95;72.54
18652;BME280;9455;54.302;10.124;2022-10-20T11:42:58;101810.69;;;12.06;72.71
18652;BME280;9455;54.302;10.124;2022-10-20T11:45:37;101799.38;;;12.02;72.43
18652;BME280;9455;54.302;10.124;2022-10-20T11:48:14;101795.53;;;12.06;72.69
18652;BME280;9455;54.302;10.124;2022-10-20T11:50:48;101788.59;;;12.15;71.26
18652;BME280;9455;54.302;10.124;2022-10-20T11:53:28;101772.59;;;12.37;72.30
18652;BME280;9455;54.302;10.124;2022-10-20T11:56:09;101773.31;;;12.39;70.72
18652;BME280;9455;54.302;10.124;2022-10-20T11:58:55;101758.00;;;12.41;72.22
18652;BME280;9455;54.302;10.124;2022-10-20T12:01:31;101752.03;;;12.37;71.95
18652;BME280;9455;54.302;10.124;2022-10-20T12:04:27;101749.25;;;12.50;70.99
18652;BME280;9455;54.302;10.124;2022-10-20T12:07:31;101745.59;;;12.40;71.42
18652;BME280;9455;54.302;10.124;2022-10-20T12:10:27;101747.06;;;12.22;70.89
18652;BME280;9455;54.302;10.124;2022-10-20T12:13:06;101744.63;;;12.30;70.75
18652;BME280;9455;54.302;10.124;2022-10-20T12:15:43;101752.41;;;12.33;70.90
18652;BME280;9455;54.302;10.124;2022-10-20T12:18:19;101749.25;;;12.50;71.19
18652;BME280;9455;54.302;10.124;2022-10-20T12:20:53;101738.44;;;12.51;70.76
18652;BME280;9455;54.302;10.124;2022-10-20T12:29:57;101739.97;;;12.87;69.08
18652;BME280;9455;54.302;10.124;2022-10-20T12:32:34;101737.03;;;12.90;68.68
18652;BME280;9455;54.302;10.124;2022-10-20T12:35:06;101744.09;;;12.91;68.47
18652;BME280;9455;54.302;10.124;2022-10-20T12:37:54;101735.72;;;12.73;68.93
18652;BME280;9455;54.302;10.124;2022-10-20T12:40:24;101730.13;;;12.76;69.17
18652;BME280;9455;54.302;10.124;2022-10-20T12:42:54;101729.53;;;12.62;67.88
18652;BME280;9455;54.302;10.124;2022-10-20T12:45:26;101731.88;;;12.55;67.43
18652;BME280;9455;54.302;10.124;2022-10-20T12:47:55;101727.34;;;12.67;69.11
18652;BME280;9455;54.302;10.124;2022-10-20T12:50:31;101719.81;;;12.61;67.47
18652;BME280;9455;54.302;10.124;2022-10-20T12:53:09;101706.69;;;12.58;67.64
18652;BME280;9455;54.302;10.124;2022-10-20T12:55:37;101705.22;;;12.54;67.85
18652;BME280;9455;54.302;10.124;2022-10-20T12:58:25;101700.81;;;12.53;67.91
18652;BME280;9455;54.302;10.124;2022-10-20T13:01:04;101697.78;;;12.57;67.76
18652;BME280;9455;54.302;10.124;2022-10-20T13:03:40;101678.97;;;12.48;68.30
18652;BME280;9455;54.302;10.124;2022-10-20T13:06:39;101665.22;;;12.52;68.99
18652;BME280;9455;54.302;10.124;2022-10-20T13:09:22;101646.00;;;12.47;69.96
18652;BME280;9455;54.302;10.124;2022-10-20T13:12:21;101637.84;;;12.49;70.87
18652;BME280;9455;54.302;10.124;2022-10-20T13:14:55;101647.09;;;12.45;70.09
18652;BME280;9455;54.302;10.124;2022-10-20T13:17:34;101645.16;;;12.47;70.83
18652;BME280;9455;54.302;10.124;2022-10-20T13:20:16;101659.50;;;12.46;70.39
18652;BME280;9455;54.302;10.124;2022-10-20T13:22:45;101652.69;;;12.42;69.22
18652;BME280;9455;54.302;10.124;2022-10-20T13:25:17;101647.84;;;12.36;69.28